METAR Data
IDs: Format: Raw Decoded Include TAF

Data at: 1023 UTC 26 Sep 2018

KSLO 261015Z AUTO 31011G17KT 10SM -RA OVC007 16/15 A3008 RMK AO2 T01600151
KSLO 260955Z AUTO 30011KT 10SM RA OVC009 17/16 A3008 RMK AO2 P0002 T01660156
KSLO 260935Z AUTO 32009G17KT 10SM -RA BKN011 OVC015 18/16 A3006 RMK AO2 T01760160
KSLO 260915Z AUTO 32011G15KT 10SM OVC013 18/17 A3005 RMK AO2 T01830165
KSLO 260855Z AUTO 33008KT 10SM BKN007 OVC013 19/17 A3003 RMK AO2 T01850170
KSLO 260835Z AUTO 33009KT 4SM BR BKN007 OVC012 19/18 A3003 RMK AO2 T01860175
KSLO 260815Z AUTO 32010G17KT 10SM OVC012 19/18 A3003 RMK AO2 T01930178
KSLO 260755Z AUTO 34008KT 10SM OVC014 20/18 A3002 RMK AO2 T02010182
KSLO 260735Z AUTO 35006KT 10SM OVC018 20/18 A3001 RMK AO2 T02010182
KSLO 260715Z AUTO 35008KT 10SM OVC022 20/18 A3001 RMK AO2 LTG DSNT S T02020183
KSLO 260655Z AUTO 35005KT 10SM SCT015 OVC022 21/19 A3000 RMK AO2 T02060190
KSLO 260635Z AUTO 34007KT 10SM SCT015 BKN022 BKN041 21/19 A3000 RMK AO2 T02060191
KSLO 260615Z AUTO 33007KT 10SM BKN020 21/19 A2999 RMK AO2 T02100194
KSLO 260555Z AUTO 33005KT 10SM SCT012 SCT018 BKN050 21/20 A2998 RMK AO2 T02130195 10233 20213 402910209
KSLO 260535Z AUTO 34008KT 10SM SCT012 BKN016 SCT044 22/20 A2998 RMK AO2 T02180203
KSLO 260515Z AUTO 31006KT 10SM SCT016 SCT038 SCT044 22/21 A2997 RMK AO2 T02240213
KSLO 260455Z AUTO 26005KT 10SM CLR 22/21 A2996 RMK AO2 LTG DSNT E T02230211
KSLO 260435Z AUTO 26005KT 10SM SCT043 SCT050 SCT070 23/21 A2996 RMK AO2 T02290213
KSLO 260415Z AUTO 30010KT 10SM SCT043 BKN060 BKN070 23/22 A2996 RMK AO2 T02310215
KSLO 260355Z AUTO 21006KT 10SM BKN060 23/21 A2995 RMK AO2 T02330214
KSLO 260335Z AUTO 21007KT 10SM CLR 23/21 A2995 RMK AO2 T02310213
KSLO 260315Z AUTO 21007KT 10SM CLR 23/21 A2994 RMK AO2 T02320214
KSLO 260255Z AUTO 21008KT 10SM CLR 23/22 A2993 RMK AO2 T02320215
KSLO 260235Z AUTO 21007KT 10SM CLR 23/22 A2993 RMK AO2 LTG DSNT SE T02320215
KSLO 260215Z AUTO 21007KT 10SM SCT050 SCT060 SCT070 23/22 A2993 RMK AO2 T02300215
KSLO 260155Z AUTO 20005KT 10SM SCT046 BKN050 BKN100 23/22 A2993 RMK AO2 T02270216
KSLO 260135Z AUTO 20004KT 10SM BKN050 BKN065 23/22 A2993 RMK AO2 T02250215
KSLO 260115Z AUTO 20003KT 10SM SCT050 SCT065 SCT100 22/21 A2992 RMK AO2 T02220212
KSLO 260055Z AUTO 19003KT 10SM BKN100 22/21 A2991 RMK AO2 T02220213
KSLO 260035Z AUTO 00000KT 10SM BKN100 23/21 A2990 RMK AO2 T02250214
KSLO 260015Z AUTO 00000KT 7SM OVC100 23/22 A2990 RMK AO2 T02270217
KSLO 252355Z AUTO 00000KT 10SM OVC090 23/22 A2989 RMK AO2 60050 T02300215 10291 20230
KSLO 252335Z AUTO 18005KT 10SM OVC080 23/21 A2989 RMK AO2 T02320214
KSLO 252315Z AUTO 00000KT 10SM SCT055 SCT070 OVC080 23/22 A2988 RMK AO2 LTG DSNT E T02320216
KSLO 252255Z AUTO 21004KT 10SM SCT010 SCT037 OVC070 23/22 A2988 RMK AO2 P0050 T02310220
KSLO 252235Z AUTO 23010G16KT 7SM RA BKN008 BKN015 OVC045 23/23 A2990 RMK AO2 P0050 T02330225
KSLO 252215Z AUTO 25014G31KT 1/2SM /VCTSRA BKN012 OVC039 24/22 A2989 RMK AO2 LTG DSNT N AND NE P0048 T02390224
KSLO 252155Z AUTO 18007KT 10SM SCT070 BKN080 OVC110 27/22 A2985 RMK AO2 T02710222
KSLO 252135Z AUTO 18007KT 10SM SCT031 SCT050 BKN090 27/22 A2986 RMK AO2 LTG DSNT W T02720224
KSLO 252115Z AUTO 19007KT 10SM SCT027 BKN035 OVC090 27/22 A2987 RMK AO2 LTG DSNT SE AND W T02720223
KSLO 252055Z AUTO 18008KT 10SM -RA SCT030 SCT038 BKN095 27/23 A2987 RMK AO2 LTG DSNT SE T02740228
KSLO 252035Z AUTO 19007KT 150V210 10SM SCT085 29/23 A2988 RMK AO2 LTG DSNT W T02900226
KSLO 252015Z AUTO 19007KT 10SM SCT025 SCT075 BKN085 29/23 A2988 RMK AO2 T02890230
KSLO 251955Z AUTO 19009KT 10SM SCT025 BKN070 OVC080 28/23 A2989 RMK AO2 LTG DSNT E AND SE T02810226
KSLO 251935Z AUTO 19009G15KT 10SM SCT023 BKN035 BKN049 29/22 A2990 RMK AO2 LTG DSNT SE T02890220
KSLO 251915Z AUTO 17008KT 10SM SCT023 BKN032 OVC070 28/22 A2990 RMK AO2 T02750221
KSLO 251855Z AUTO 20009KT 10SM -RA SCT023 SCT031 OVC070 28/23 A2991 RMK AO2 LTG DSNT SE T02770226
KSLO 251835Z AUTO 18007KT 10SM SCT023 BKN030 OVC080 28/22 A2991 RMK AO2 LTG DSNT SE T02780221
KSLO 251815Z AUTO 20007KT 10SM SCT021 SCT029 BKN080 28/22 A2992 RMK AO2 LTG DSNT SE T02820221
KSLO 251755Z AUTO 18006KT 10SM BKN023 BKN030 OVC090 28/22 A2993 RMK AO2 LTG DSNT SE 60002 T02800222 10280 20209
KSLO 251735Z AUTO 23005KT 10SM BKN021 BKN026 BKN030 28/22 A2992 RMK AO2 LTG DSNT E AND SE T02790219
KSLO 251715Z AUTO 21008KT 10SM BKN017 BKN027 28/22 A2993 RMK AO2 LTG DSNT SE T02770219
KSLO 251655Z AUTO 22005KT 10SM BKN017 OVC022 27/22 A2993 RMK AO2 T02680222
KSLO 251635Z AUTO 19005KT 10SM BKN015 27/23 A2994 RMK AO2 LTG DSNT E T02670226
KSLO 251615Z AUTO 22004KT 10SM SCT013 27/22 A2994 RMK AO2 LTG DSNT E T02650224
KSLO 251555Z AUTO 23004KT 10SM SCT011 26/22 A2995 RMK AO2 LTG DSNT E AND SE T02590224
KSLO 251535Z AUTO 19004KT 10SM SCT018 SCT085 25/22 A2996 RMK AO2 LTG DSNT E AND SE T02470222
KSLO 251515Z AUTO 20005KT 10SM BKN018 BKN085 24/22 A2996 RMK AO2 LTG DSNT E AND SE T02380220
KSLO 251455Z AUTO 17005KT 10SM BKN020 BKN080 23/21 A2996 RMK AO2 LTG DSNT E AND SE 60002 T02300213
KSLO 251435Z AUTO 18003KT 10SM SCT020 BKN080 22/21 A2996 RMK AO2 LTG DSNT E AND SE T02200210
KSLO 251415Z AUTO 15005KT 10SM VCTS SCT055 BKN080 OVC090 21/20 A2996 RMK AO2 LTG DSNT E THRU S T02100200
KSLO 251355Z AUTO 12005KT 7SM -RA SCT020 SCT039 OVC080 21/20 A2996 RMK AO2 LTG DSNT SE P0001 T02100200
KSLO 251335Z AUTO 12003KT 10SM RA SCT033 OVC085 21/20 A2996 RMK AO2 LTG DSNT NE THRU SE T02140201
KSLO 251315Z AUTO 00000KT 10SM SCT028 BKN033 OVC042 22/20 A2996 RMK AO2 LTG DSNT NE THRU S T02150197
KSLO 251255Z AUTO 14009G15KT 10SM VCTS SCT013 SCT019 OVC028 22/21 A2996 RMK AO2 LTG DSNT NE THRU S P0001 T02220206
KSLO 251235Z AUTO 16008KT 110V180 10SM SCT010 BKN027 OVC041 23/22 A2997 RMK AO2 LTG DSNT ALQS P0001 T02270215
KSLO 251215Z AUTO 16008KT 10SM TSRA SCT006 BKN010 OVC022 23/22 A2995 RMK AO2 LTG DSNT NE THRU S P0001 T02250218
KSLO 251155Z AUTO 27007KT 7SM TSRA BKN006 OVC012 23/22 A2994 RMK AO2 LTG DSNT ALQS P0006 60080 70081 T02270220 10240 20223
KSLO 251135Z AUTO 00000KT 3SM +TSRA SCT008 BKN014 OVC021 23/22 A2993 RMK AO2 LTG DSNT ALQS P0006 T02250217
KSLO 251115Z AUTO 00000KT 10SM TSRA SCT013 BKN024 OVC047 22/22 A2993 RMK AO2 LTG DSNT ALQS T02230216
KSLO 251055Z AUTO 20003KT 2 1/2SM +TSRA SCT005 BKN017 OVC038 23/22 A2993 RMK AO2 VIS 1 1/4V5 LTG DSNT ALQS P0071 T02250217
KSLO 251035Z AUTO 20014G21KT 1SM +TSRA OVC007 24/23 A2995 RMK AO2 LTG DSNT ALQS P0029 T02370229
KSLO 251015Z AUTO 00000KT 7SM VCTS BKN007 OVC011 24/23 A2992 RMK AO2 LTG DSNT S THRU W T02400230
KSLO 250955Z AUTO 16003KT 7SM -TSRA OVC011 24/23 A2992 RMK AO2 LTG DSNT E THRU W T02390230
KSLO 250935Z AUTO 16004KT 7SM -VCTSRA OVC011 24/23 A2993 RMK AO2 LTG DSNT S AND SW T02380230
KSLO 250915Z AUTO 17004KT 7SM OVC011 24/23 A2993 RMK AO2 LTG DSNT NE E AND SW T02400230
KSLO 250855Z AUTO 18004KT 7SM BKN008 OVC015 24/23 A2993 RMK AO2 LTG DSNT NE S AND SW T02390230
KSLO 250835Z AUTO 18004KT 7SM OVC008 24/23 A2993 RMK AO2 LTG DSNT NE T02400230
KSLO 250815Z AUTO 20004KT 7SM OVC008 24/23 A2994 RMK AO2 LTG DSNT SW T02400230
KSLO 250755Z AUTO 20006KT 7SM OVC008 24/23 A2994 RMK AO2 LTG DSNT NE AND SW T02400230
KSLO 250740Z AUTO 19005KT 10SM OVC008 24/23 A2995 RMK AO2 LTG DSNT NE AND E T02400230
KSLO 250715Z AUTO 19007KT 10SM BKN008 OVC013 24/23 A2994 RMK AO2 LTG DSNT NE AND E T02380230
KSLO 250655Z AUTO 19007KT 10SM BKN007 OVC012 24/23 A2994 RMK AO2 LTG DSNT NE T02380230
KSLO 250635Z AUTO 18008G14KT 10SM VCTS OVC007 24/23 A2994 RMK AO2 LTG DSNT NE T02380230
KSLO 250615Z AUTO 18007KT 10SM OVC007 24/23 A2994 RMK AO2 LTG DSNT NE AND E T02380230
KSLO 250555Z AUTO 19007KT 7SM OVC007 24/23 A2994 RMK AO2 LTG DSNT NE AND E 60001 T02370228 10242 20233 402550190
KSLO 250535Z AUTO 18005KT 10SM VCTS OVC007 24/23 A2994 RMK AO2 LTG DSNT NE AND E T02360227
KSLO 250515Z AUTO 18006KT 10SM OVC009 24/23 A2994 RMK AO2 LTG DSNT E T02350226
KSLO 250455Z AUTO 16006KT 10SM OVC009 24/23 A2994 RMK AO2 LTG DSNT E T02350226
KSLO 250435Z AUTO 16004KT 10SM VCTS OVC009 24/23 A2995 RMK AO2 T02350226
KSLO 250415Z AUTO 16003KT 10SM VCTS OVC009 23/23 A2995 RMK AO2 LTG DSNT E T02330225
KSLO 250355Z AUTO 16004KT 10SM OVC011 23/23 A2994 RMK AO2 LTG DSNT SE P0001 T02330225
KSLO 250335Z AUTO 00000KT 10SM BKN009 BKN013 OVC032 24/23 A2995 RMK AO2 LTG DSNT SE P0001 T02350225
KSLO 250315Z AUTO 18003KT 10SM SCT017 BKN028 OVC035 24/22 A2995 RMK AO2 T02380222
KSLO 250255Z AUTO 15004KT 10SM OVC026 24/22 A2995 RMK AO2 T02400221
KSLO 250235Z AUTO 16006KT 10SM BKN031 OVC041 24/22 A2994 RMK AO2 T02400221
KSLO 250215Z AUTO 16004KT 10SM BKN031 OVC041 24/22 A2995 RMK AO2 T02400220
KSLO 250155Z AUTO 17005KT 10SM SCT019 OVC033 24/22 A2994 RMK AO2 T02390220
KSLO 250135Z AUTO 14003KT 10SM SCT019 SCT030 OVC055 24/22 A2994 RMK AO2 T02360220
KSLO 250115Z AUTO 14003KT 10SM SCT020 BKN055 OVC100 24/22 A2993 RMK AO2 T02350220
KSLO 250055Z AUTO 14003KT 10SM SCT022 SCT027 BKN055 23/22 A2992 RMK AO2 T02330217
KSLO 250035Z AUTO 00000KT 10SM SCT024 BKN029 24/22 A2992 RMK AO2 T02360217
KSLO 250015Z AUTO 14003KT 10SM SCT026 24/22 A2991 RMK AO2 T02350216
KSLO 242355Z AUTO 15003KT 10SM SCT024 SCT038 24/22 A2991 RMK AO2 T02420215 10255 20233
KSLO 242335Z AUTO 00000KT 10SM SCT031 SCT038 25/22 A2991 RMK AO2 T02480215
KSLO 242315Z AUTO 17005KT 10SM BKN030 BKN036 25/22 A2990 RMK AO2 T02530216
KSLO 242255Z AUTO 12003KT 10SM BKN029 OVC034 25/22 A2990 RMK AO2 T02500217
KSLO 242235Z AUTO 16003KT 10SM SCT026 OVC034 25/22 A2991 RMK AO2 T02500215